»·PEaware :: N915TB KOXR-KSAN

N915TB :: KOXR-KSAN

FLIGHT INFORMATION

Flight Status: Arrived
Operator: Privately registered:
United States
More flights under this callsign
Pilot: Jake M. (20491)
Aircraft: SOCATA TBM-900
(TBM9)
More flights by this aircraft type
Origin: KOXR Oxnard
United States
Destination: KSAN San Diego Intl-Lindbergh
United States
More flights between these airports :: More routes between these airports
Route: +VTU V208 SXC V208 LAX118 CARDI MZB320 MZB
File this flight plan on PilotEdge
Remarks:
Altitude:
(Current/Filed)
15,000ft
Speed:
(Current/Filed)
280kts
Departed: 06-Jan-20 08:20 PM
Arrived: 06-Jan-20 09:08 PM
Distance/Time
Traveled:
134nm/0:48
Distance/Time
To Go:
Arrived

Flight Plot

Page will automatically refresh every two minutes.


Map Options




Map Legend


Flown Route
Filed Route
Departure Airport
Arrival Airport
Navaid (VOR, NDB)
Fix

Horizontal Profiles

Position Reports

Time Latitude Longitude Heading Altitude Ground
Speed
06-Jan-20 20:12 34.199230 -119.199787 88 42ft 0kts
06-Jan-20 20:13 34.199230 -119.199787 88 42ft 0kts
06-Jan-20 20:14 34.199230 -119.199787 88 42ft 0kts
06-Jan-20 20:15 34.199230 -119.199787 88 42ft 0kts
06-Jan-20 20:16 34.199230 -119.199787 88 42ft 0kts
06-Jan-20 20:17 34.199230 -119.199786 88 42ft 0kts
06-Jan-20 20:18 34.199976 -119.197516 356 42ft 0kts
06-Jan-20 20:19 34.199976 -119.197517 356 42ft 0kts
06-Jan-20 20:19 34.200720 -119.202711 270 39ft 89kts
06-Jan-20 20:21 34.199112 -119.254219 267 1497ft 156kts
06-Jan-20 20:22 34.190332 -119.305519 210 3154ft 163kts
06-Jan-20 20:22 34.156405 -119.294701 152 3999ft 163kts
06-Jan-20 20:24 34.101729 -119.260669 140 3995ft 205kts
06-Jan-20 20:24 34.069616 -119.219196 132 4707ft 195kts
06-Jan-20 20:25 34.034569 -119.172303 132 6158ft 181kts
06-Jan-20 20:27 33.995496 -119.119351 132 7986ft 182kts
06-Jan-20 20:27 33.966671 -119.081139 132 9006ft 197kts
06-Jan-20 20:29 33.915407 -119.028703 178 8937ft 208kts
06-Jan-20 20:29 33.862856 -119.023046 174 9001ft 242kts
06-Jan-20 20:30 33.793831 -119.014085 155 8971ft 254kts
06-Jan-20 20:32 33.738891 -118.940450 129 8987ft 255kts
06-Jan-20 20:32 33.701544 -118.886670 129 8981ft 243kts
06-Jan-20 20:33 33.658720 -118.825097 129 8981ft 238kts
06-Jan-20 20:34 33.616297 -118.764221 129 8981ft 237kts
06-Jan-20 20:35 33.574119 -118.703786 129 8986ft 237kts
06-Jan-20 20:36 33.531773 -118.643209 129 8995ft 236kts
06-Jan-20 20:37 33.489415 -118.582723 129 9005ft 237kts
06-Jan-20 20:38 33.446800 -118.521965 129 9016ft 238kts
06-Jan-20 20:39 33.404219 -118.461364 129 9018ft 238kts
06-Jan-20 20:40 33.371683 -118.394271 98 9017ft 236kts
06-Jan-20 20:41 33.361268 -118.314063 98 9012ft 252kts
06-Jan-20 20:42 33.350222 -118.229866 98 9009ft 257kts
06-Jan-20 20:43 33.339002 -118.144791 98 9009ft 258kts
06-Jan-20 20:44 33.327729 -118.059749 98 9007ft 259kts
06-Jan-20 20:45 33.316365 -117.974554 98 8984ft 259kts
06-Jan-20 20:46 33.304963 -117.889377 98 8961ft 259kts
06-Jan-20 20:47 33.293419 -117.803672 98 8945ft 259kts
06-Jan-20 20:48 33.281411 -117.718639 99 8938ft 258kts
06-Jan-20 20:49 33.268745 -117.634310 99 8944ft 257kts
06-Jan-20 20:50 33.244123 -117.556607 132 8953ft 256kts
06-Jan-20 20:51 33.194696 -117.494670 132 8944ft 256kts
06-Jan-20 20:52 33.145504 -117.433104 132 8944ft 256kts
06-Jan-20 20:53 33.083696 -117.392493 153 8945ft 257kts
06-Jan-20 20:54 33.018934 -117.356504 153 8944ft 255kts
06-Jan-20 20:55 32.954158 -117.320561 154 8945ft 255kts
06-Jan-20 20:56 32.889690 -117.284844 154 8945ft 255kts
06-Jan-20 20:57 32.825142 -117.249142 153 8945ft 255kts
06-Jan-20 20:58 32.778482 -117.194654 101 8526ft 256kts
06-Jan-20 20:59 32.763240 -117.109630 101 7050ft 267kts
06-Jan-20 21:00 32.745090 -117.024281 106 5548ft 264kts
06-Jan-20 21:01 32.723468 -116.945117 106 4019ft 242kts
06-Jan-20 21:02 32.678581 -116.907112 215 2924ft 240kts
06-Jan-20 21:03 32.683178 -116.980953 291 2949ft 247kts
06-Jan-20 21:04 32.702278 -117.060369 287 2777ft 245kts
06-Jan-20 21:05 32.719522 -117.131007 285 1080ft 199kts
06-Jan-20 21:06 32.731717 -117.181924 286 22ft 115kts
06-Jan-20 21:07 32.734781 -117.189851 106 16ft 0kts
06-Jan-20 21:08 32.733544 -117.184849 104 16ft 27kts
06-Jan-20 21:09 32.733114 -117.179033 35 19ft 22kts
06-Jan-20 21:10 32.732784 -117.178447 214 19ft 0kts

Navigation Log

Ident Type
Flight plan parsing failed, navigation log unavailable